Christiana, Jamaica
Current Conditions -  °F | °C
As of 3:00 PM on Thursday 27 Nov 2014 (Local Time) from MKJS Reporting Station
Few Clouds Few Clouds  
Wind Chill: 86°   Ceiling: Unl
Heat Index: 97°   Visibility: 6mi
Dew Point: 77°   Wind: 12mph
Humidity: 74%   Direction: 60°ENE
Pressure: 29.91"   Gusts: NA
Location:  18.16°N, 77.51°W
Report Text: MKJS 272000Z 06010KT 9999 FEW022 FEW024CB 30/25 Q1013
Loading
Personal Weather Stations






























Interactive Weather Map New forecast layout! Learn more

10-Day Weather Forecast

Advertisements
Track Severe Weather on mobile